Time;durP1;ratioP1;P1;durP2;ratioP2;P2;SDS_P1;SDS_P2;PMS_P1;PMS_P2;Temp;Humidity;BMP_temperature;BMP_pressure;BME280_temperature;BME280_humidity;BME280_pressure;Samples;Min_cycle;Max_cycle;Signal;HPM_P1;HPM_P2
2021/04/19 00:00:12;;;;;;;16.57;9.43;;;3.30;98.20;;;;;;5008683;28;20175;-59
2021/04/19 00:02:38;;;;;;;19.90;9.67;;;3.30;98.30;;;;;;5004545;28;20980;-60
2021/04/19 00:05:07;;;;;;;16.57;9.40;;;3.30;98.30;;;;;;5004838;28;20542;-59
2021/04/19 00:07:32;;;;;;;18.80;9.77;;;3.20;98.00;;;;;;5007831;28;20918;-59
2021/04/19 00:09:58;;;;;;;18.77;11.37;;;3.20;98.20;;;;;;5017445;28;20479;-59
2021/04/19 00:12:24;;;;;;;17.77;9.80;;;3.10;98.20;;;;;;5005997;28;20322;-59
2021/04/19 00:14:50;;;;;;;18.87;10.40;;;3.10;98.20;;;;;;5013365;28;20290;-59
2021/04/19 00:17:15;;;;;;;22.77;11.53;;;3.00;98.40;;;;;;5007307;28;20818;-60
2021/04/19 00:19:41;;;;;;;21.73;11.00;;;3.00;98.20;;;;;;5009619;28;20185;-60
2021/04/19 00:22:07;;;;;;;19.37;10.43;;;3.00;98.20;;;;;;5014666;28;20226;-60
2021/04/19 00:24:32;;;;;;;18.57;10.20;;;2.90;98.30;;;;;;5006578;28;20223;-60
2021/04/19 00:26:58;;;;;;;20.40;11.30;;;2.90;98.50;;;;;;5007171;28;20203;-60
2021/04/19 00:29:24;;;;;;;20.50;10.27;;;2.90;98.80;;;;;;5006003;28;20202;-60
2021/04/19 00:31:49;;;;;;;20.70;11.40;;;2.90;98.70;;;;;;5007674;28;20341;-60
2021/04/19 00:34:15;;;;;;;22.27;10.80;;;2.80;98.50;;;;;;5011712;28;20176;-60
2021/04/19 00:36:41;;;;;;;17.57;10.57;;;2.80;98.30;;;;;;5003631;28;20222;-60
2021/04/19 00:39:07;;;;;;;20.97;10.70;;;2.70;98.20;;;;;;5008544;28;20188;-59
2021/04/19 00:41:33;;;;;;;19.33;10.60;;;2.70;98.40;;;;;;5013303;28;20220;-61
2021/04/19 00:43:58;;;;;;;21.13;11.30;;;2.60;98.40;;;;;;5006911;28;20226;-60
2021/04/19 00:46:25;;;;;;;23.80;11.10;;;2.60;98.50;;;;;;5001892;28;20451;-60
2021/04/19 00:48:50;;;;;;;28.20;12.80;;;2.60;98.50;;;;;;5007881;28;20177;-59
2021/04/19 00:51:16;;;;;;;24.10;12.17;;;2.50;99.20;;;;;;5005463;28;20483;-60
2021/04/19 00:53:43;;;;;;;23.60;11.83;;;2.50;99.70;;;;;;5003630;28;20180;-59
2021/04/19 00:56:09;;;;;;;24.93;12.23;;;2.50;99.60;;;;;;5020935;28;20765;-60
2021/04/19 00:58:38;;;;;;;16.07;10.23;;;2.40;99.40;;;;;;5007516;28;20435;-60
2021/04/19 01:01:05;;;;;;;19.37;10.73;;;2.40;99.30;;;;;;5007418;28;20430;-61
2021/04/19 01:03:31;;;;;;;20.50;10.70;;;2.30;98.80;;;;;;5001955;28;20523;-61
2021/04/19 01:05:57;;;;;;;17.30;9.63;;;2.30;98.70;;;;;;5004322;28;20527;-61
2021/04/19 01:08:23;;;;;;;23.47;10.93;;;2.20;98.60;;;;;;5011009;28;20975;-59
2021/04/19 01:10:48;;;;;;;21.10;10.87;;;2.20;98.90;;;;;;5009433;28;20384;-60
2021/04/19 01:13:14;;;;;;;16.07;11.00;;;2.10;98.90;;;;;;5012896;28;20176;-60
2021/04/19 01:15:40;;;;;;;20.67;11.37;;;2.10;99.00;;;;;;5015787;28;20199;-59
2021/04/19 01:18:06;;;;;;;19.20;10.20;;;2.00;98.90;;;;;;5005017;28;20178;-60
2021/04/19 01:20:40;;;;;;;19.87;9.87;;;2.00;99.30;;;;;;5013181;28;20183;-60
2021/04/19 01:23:06;;;;;;;18.23;10.70;;;2.00;99.40;;;;;;5005895;28;20520;-60
2021/04/19 01:25:32;;;;;;;21.83;10.47;;;1.90;99.40;;;;;;5010771;28;20994;-59
2021/04/19 01:27:58;;;;;;;19.37;10.93;;;1.90;99.30;;;;;;5008782;28;20171;-61
2021/04/19 01:30:31;;;;;;;17.77;10.47;;;1.90;99.20;;;;;;5023478;28;20487;-60
2021/04/19 01:32:57;;;;;;;19.90;10.53;;;1.90;99.20;;;;;;5009525;28;20182;-60
2021/04/19 01:35:22;;;;;;;20.40;10.90;;;1.80;99.30;;;;;;5009686;28;20452;-60
2021/04/19 01:37:50;;;;;;;27.40;11.60;;;1.80;99.30;;;;;;5006834;28;20185;-59
2021/04/19 01:40:17;;;;;;;18.83;11.50;;;1.80;99.40;;;;;;5008779;28;20233;-59
2021/04/19 01:42:45;;;;;;;16.57;10.10;;;1.80;99.30;;;;;;5010739;28;20453;-60
2021/04/19 01:45:11;;;;;;;19.10;10.70;;;1.70;99.20;;;;;;5012774;28;21056;-59
2021/04/19 01:47:37;;;;;;;20.60;11.23;;;1.70;99.20;;;;;;5007457;28;20495;-61
2021/04/19 01:50:14;;;;;;;19.70;10.80;;;1.70;99.10;;;;;;5023892;28;20427;-59
2021/04/19 01:52:40;;;;;;;18.13;10.10;;;1.60;99.00;;;;;;5003903;28;20174;-59
2021/04/19 01:55:09;;;;;;;19.37;10.93;;;1.60;99.00;;;;;;5011099;28;20451;-60
2021/04/19 01:57:38;;;;;;;22.03;11.33;;;1.60;99.10;;;;;;5008080;28;20590;-59
2021/04/19 02:00:09;;;;;;;23.23;11.53;;;1.60;99.10;;;;;;5007429;28;20424;-60
2021/04/19 02:02:56;;;;;;;24.67;11.37;;;1.50;99.00;;;;;;5006270;28;20433;-60
2021/04/19 02:05:42;;;;;;;22.23;12.20;;;1.50;99.00;;;;;;5008885;28;21194;-59
2021/04/19 02:08:27;;;;;;;20.37;11.97;;;1.40;99.10;;;;;;5007259;28;20445;-59
2021/04/19 02:11:15;;;;;;;24.27;11.27;;;1.40;99.30;;;;;;5025656;28;20424;-59
2021/04/19 02:14:03;;;;;;;16.10;10.20;;;1.40;99.70;;;;;;4998777;28;21017;-60
2021/04/19 02:16:50;;;;;;;19.47;10.87;;;1.40;99.90;;;;;;5017309;28;20551;-60
2021/04/19 02:19:25;;;;;;;20.13;10.93;;;1.40;99.90;;;;;;5014446;28;20445;-59
2021/04/19 02:22:18;;;;;;;21.20;11.10;;;1.40;99.90;;;;;;5000452;28;20432;-60
2021/04/19 02:24:47;;;;;;;27.93;10.57;;;1.40;99.90;;;;;;5008936;28;20495;-59
2021/04/19 02:27:36;;;;;;;20.37;11.00;;;1.40;99.90;;;;;;5009482;28;20491;-60
2021/04/19 02:30:08;;;;;;;21.93;11.20;;;1.40;99.90;;;;;;5003935;28;20423;-59
2021/04/19 02:32:36;;;;;;;20.00;10.70;;;1.40;99.90;;;;;;5008086;28;20958;-61
2021/04/19 02:35:06;;;;;;;22.03;11.27;;;1.40;99.90;;;;;;5016576;28;20565;-59
2021/04/19 02:37:35;;;;;;;19.80;10.90;;;1.40;99.90;;;;;;5004861;28;20437;-59
2021/04/19 02:40:03;;;;;;;20.80;10.63;;;1.40;99.80;;;;;;5009115;28;21055;-60
2021/04/19 02:42:33;;;;;;;23.80;11.50;;;1.30;99.80;;;;;;5008970;28;20820;-59
2021/04/19 02:45:00;;;;;;;21.30;10.83;;;1.30;99.80;;;;;;5006116;28;20512;-59
2021/04/19 02:47:26;;;;;;;19.60;10.03;;;1.30;99.90;;;;;;5011874;28;20441;-59
2021/04/19 02:49:52;;;;;;;26.63;11.30;;;1.20;99.90;;;;;;5009349;28;20486;-59
2021/04/19 02:52:18;;;;;;;17.90;10.70;;;1.20;99.90;;;;;;5004894;28;20433;-60
2021/04/19 02:54:46;;;;;;;21.63;11.10;;;1.20;99.90;;;;;;5005353;28;20183;-59
2021/04/19 02:57:27;;;;;;;28.63;11.53;;;1.10;99.90;;;;;;5006799;28;20429;-60
2021/04/19 02:59:54;;;;;;;20.70;11.40;;;1.10;99.90;;;;;;5011493;28;20437;-60
2021/04/19 03:02:24;;;;;;;19.30;10.37;;;1.10;99.90;;;;;;5007413;28;20550;-61
2021/04/19 03:04:51;;;;;;;20.03;10.57;;;1.00;99.90;;;;;;5009716;28;20857;-59
2021/04/19 03:07:19;;;;;;;20.30;11.50;;;1.00;99.90;;;;;;5001414;28;20421;-60
2021/04/19 03:09:58;;;;;;;20.67;10.20;;;1.00;99.90;;;;;;5008982;28;20439;-60
2021/04/19 03:12:28;;;;;;;19.40;10.60;;;1.00;99.90;;;;;;5002451;28;20422;-60
2021/04/19 03:15:05;;;;;;;21.27;11.83;;;0.90;99.90;;;;;;5011057;28;20440;-60
2021/04/19 03:17:31;;;;;;;22.47;12.00;;;0.90;99.90;;;;;;5009867;28;20879;-59
2021/04/19 03:20:25;;;;;;;27.03;12.70;;;0.80;99.90;;;;;;5010295;28;20516;-59
2021/04/19 03:22:52;;;;;;;18.67;11.40;;;0.80;99.90;;;;;;5007963;28;20486;-60
2021/04/19 03:25:19;;;;;;;26.63;12.50;;;0.80;99.90;;;;;;5008808;28;20507;-61
2021/04/19 03:27:47;;;;;;;21.20;11.70;;;0.80;99.90;;;;;;5022120;28;20456;-60
2021/04/19 03:30:14;;;;;;;24.87;11.93;;;0.80;99.90;;;;;;5002718;28;20439;-60
2021/04/19 03:32:47;;;;;;;25.10;11.20;;;0.80;99.90;;;;;;5009450;28;20423;-59
2021/04/19 03:35:28;;;;;;;27.20;12.27;;;0.80;99.90;;;;;;5011911;28;20463;-59
2021/04/19 03:37:56;;;;;;;23.80;11.23;;;0.80;99.90;;;;;;5007117;28;20515;-61
2021/04/19 03:40:32;;;;;;;24.30;12.20;;;0.70;99.90;;;;;;5005573;28;20479;-60
2021/04/19 03:43:03;;;;;;;21.37;11.50;;;0.70;99.90;;;;;;5017550;28;20421;-59
2021/04/19 03:45:33;;;;;;;23.00;12.03;;;0.70;99.90;;;;;;5007674;28;20457;-60
2021/04/19 03:47:59;;;;;;;21.10;12.23;;;0.70;99.90;;;;;;5004964;28;20432;-59
2021/04/19 03:50:27;;;;;;;21.00;12.90;;;0.60;99.90;;;;;;5001958;28;20549;-60
2021/04/19 03:52:55;;;;;;;19.73;10.43;;;0.60;99.90;;;;;;5004055;28;20431;-61
2021/04/19 03:55:22;;;;;;;22.17;11.50;;;0.60;99.90;;;;;;5007335;28;20437;-61
2021/04/19 03:57:49;;;;;;;19.30;12.00;;;0.60;99.90;;;;;;5014511;28;20523;-60
2021/04/19 04:00:20;;;;;;;21.53;11.57;;;0.60;99.90;;;;;;4998370;28;20445;-60
2021/04/19 04:02:53;;;;;;;25.13;11.93;;;0.60;99.90;;;;;;5004035;28;21008;-61
2021/04/19 04:05:20;;;;;;;22.90;12.30;;;0.50;99.90;;;;;;5000962;28;20990;-61
2021/04/19 04:07:48;;;;;;;24.87;11.10;;;0.50;99.90;;;;;;5004263;28;20496;-60
2021/04/19 04:10:15;;;;;;;26.70;11.90;;;0.50;99.90;;;;;;5018794;28;20468;-60
2021/04/19 04:12:41;;;;;;;20.70;12.53;;;0.50;99.90;;;;;;5011745;28;20832;-60
2021/04/19 04:15:07;;;;;;;21.20;11.27;;;0.50;99.90;;;;;;5009805;28;20453;-61
2021/04/19 04:17:33;;;;;;;25.43;12.37;;;0.40;99.90;;;;;;5003898;28;20184;-60
2021/04/19 04:19:58;;;;;;;23.93;12.80;;;0.40;99.90;;;;;;5003635;28;20454;-60
2021/04/19 04:22:24;;;;;;;39.40;13.97;;;0.40;99.90;;;;;;5006818;28;20182;-61
2021/04/19 04:24:50;;;;;;;24.37;13.00;;;0.40;99.90;;;;;;5008019;28;20604;-60
2021/04/19 04:27:17;;;;;;;25.97;14.60;;;0.40;99.90;;;;;;5005774;28;20635;-61
2021/04/19 04:29:43;;;;;;;36.53;15.67;;;0.40;99.90;;;;;;5007130;28;20435;-60
2021/04/19 04:32:09;;;;;;;23.77;12.70;;;0.40;99.90;;;;;;5006545;28;20457;-60
2021/04/19 04:34:34;;;;;;;22.93;13.17;;;0.40;99.90;;;;;;5010051;28;20479;-60
2021/04/19 04:37:00;;;;;;;23.60;13.17;;;0.40;99.90;;;;;;5001466;28;20712;-61
2021/04/19 04:39:27;;;;;;;24.13;12.87;;;0.40;99.90;;;;;;5008084;28;20205;-60
2021/04/19 04:41:52;;;;;;;25.73;13.53;;;0.40;99.90;;;;;;5006267;28;20859;-62
2021/04/19 04:44:26;;;;;;;25.53;12.80;;;0.30;99.90;;;;;;5009275;28;20544;-60
2021/04/19 04:46:59;;;;;;;28.10;13.03;;;0.30;99.90;;;;;;5013250;28;20189;-60
2021/04/19 04:49:31;;;;;;;24.20;13.30;;;0.30;99.90;;;;;;5003317;28;20520;-60
2021/04/19 04:51:58;;;;;;;30.30;13.40;;;0.30;99.90;;;;;;5007784;28;20482;-61
2021/04/19 04:54:24;;;;;;;25.30;12.60;;;0.30;99.90;;;;;;5005385;28;20425;-60
2021/04/19 04:56:57;;;;;;;29.87;13.70;;;0.30;99.90;;;;;;4998747;28;20449;-61
2021/04/19 04:59:26;;;;;;;23.70;13.07;;;0.30;99.90;;;;;;4997280;28;20178;-61
2021/04/19 05:01:52;;;;;;;21.00;11.90;;;0.30;99.90;;;;;;4999223;28;20439;-60
2021/04/19 05:04:18;;;;;;;21.93;11.73;;;0.30;99.90;;;;;;5003156;28;20456;-60
2021/04/19 05:06:45;;;;;;;19.80;11.40;;;0.30;99.90;;;;;;5002574;28;21104;-62
2021/04/19 05:09:13;;;;;;;30.67;13.40;;;0.40;99.90;;;;;;5020819;28;20438;-60
2021/04/19 05:11:41;;;;;;;30.20;12.33;;;0.40;99.90;;;;;;5003742;28;20508;-62
2021/04/19 05:14:06;;;;;;;31.23;13.47;;;0.40;99.90;;;;;;5004040;28;20429;-60
2021/04/19 05:16:32;;;;;;;25.17;12.33;;;0.40;99.90;;;;;;5002029;28;20475;-60
2021/04/19 05:19:04;;;;;;;37.53;12.87;;;0.50;99.90;;;;;;5009658;28;20175;-59
2021/04/19 05:21:29;;;;;;;23.63;11.40;;;0.50;99.90;;;;;;5007687;28;20432;-60
2021/04/19 05:23:56;;;;;;;29.50;13.53;;;0.60;99.90;;;;;;5006006;28;20841;-61
2021/04/19 05:26:23;;;;;;;29.43;14.43;;;0.70;99.90;;;;;;5000300;28;20504;-61
2021/04/19 05:28:51;;;;;;;31.73;15.00;;;0.80;99.90;;;;;;4992820;28;20437;-63
2021/04/19 05:31:17;;;;;;;28.30;14.27;;;0.80;99.90;;;;;;4995492;28;20922;-60
2021/04/19 05:33:42;;;;;;;31.17;15.60;;;0.90;99.90;;;;;;5001189;28;20441;-61
2021/04/19 05:36:10;;;;;;;36.13;16.13;;;1.00;99.90;;;;;;5006997;28;20214;-58
2021/04/19 05:38:37;;;;;;;53.97;17.80;;;1.00;99.90;;;;;;4999683;28;20205;-59
2021/04/19 05:41:03;;;;;;;40.97;17.43;;;1.00;99.90;;;;;;4993977;28;20434;-61
2021/04/19 05:43:30;;;;;;;42.37;17.23;;;1.10;99.90;;;;;;5006870;28;20516;-61
2021/04/19 05:45:58;;;;;;;64.80;17.77;;;1.00;99.90;;;;;;4997022;28;21371;-60
2021/04/19 05:48:24;;;;;;;41.57;17.00;;;1.00;99.90;;;;;;5008409;28;20436;-61
2021/04/19 05:50:53;;;;;;;50.23;17.53;;;1.00;99.90;;;;;;5009631;28;20440;-61
2021/04/19 05:53:20;;;;;;;52.13;18.20;;;0.90;99.90;;;;;;5018006;28;20441;-61
2021/04/19 05:55:46;;;;;;;49.83;20.10;;;0.90;99.90;;;;;;5004328;28;20460;-60
2021/04/19 05:58:18;;;;;;;72.77;20.77;;;0.90;99.90;;;;;;5006556;28;20437;-60
2021/04/19 06:00:47;;;;;;;51.00;19.93;;;1.00;99.90;;;;;;5006388;28;20437;-60
2021/04/19 06:03:50;;;;;;;75.40;21.70;;;1.00;99.90;;;;;;5010207;28;20522;-60
2021/04/19 06:06:29;;;;;;;59.20;19.57;;;1.00;99.90;;;;;;5012096;28;20462;-61
2021/04/19 06:09:05;;;;;;;57.20;20.13;;;1.00;99.90;;;;;;5013930;28;20579;-60
2021/04/19 06:11:44;;;;;;;62.53;20.33;;;1.00;99.90;;;;;;5000531;28;20487;-60
2021/04/19 06:14:13;;;;;;;46.97;19.00;;;1.00;99.90;;;;;;5004468;28;20464;-59
2021/04/19 06:16:39;;;;;;;66.90;20.60;;;1.10;99.90;;;;;;5004113;28;20457;-60
2021/04/19 06:19:14;;;;;;;52.83;20.50;;;1.20;99.90;;;;;;5000383;28;20842;-60
2021/04/19 06:21:40;;;;;;;56.20;19.73;;;1.40;99.90;;;;;;5019592;28;20499;-60
2021/04/19 06:24:07;;;;;;;58.33;19.00;;;1.60;99.90;;;;;;5018784;28;20500;-60
2021/04/19 06:26:35;;;;;;;55.57;19.80;;;1.70;99.90;;;;;;5019138;28;20469;-60
2021/04/19 06:29:01;;;;;;;62.43;21.07;;;1.80;99.90;;;;;;5012569;28;20498;-61
2021/04/19 06:31:26;;;;;;;61.33;18.90;;;2.00;99.90;;;;;;5003302;28;20600;-60
2021/04/19 06:34:01;;;;;;;50.03;18.17;;;2.20;99.90;;;;;;5027521;28;20563;-60
2021/04/19 06:36:29;;;;;;;55.20;20.20;;;2.40;99.90;;;;;;5009810;28;20214;-61
2021/04/19 06:38:55;;;;;;;51.50;19.50;;;2.50;99.90;;;;;;5004441;28;20517;-63
2021/04/19 06:41:21;;;;;;;54.33;21.00;;;2.50;99.80;;;;;;5018560;28;20568;-60
2021/04/19 06:43:47;;;;;;;35.67;17.83;;;2.50;99.70;;;;;;5008065;28;20601;-61
2021/04/19 06:46:13;;;;;;;45.00;19.20;;;2.50;99.90;;;;;;5006282;28;20455;-62
2021/04/19 06:48:40;;;;;;;39.47;18.07;;;2.50;99.90;;;;;;5019043;28;20841;-61
2021/04/19 06:51:09;;;;;;;43.40;18.20;;;2.60;99.90;;;;;;5007408;28;20430;-61
2021/04/19 06:53:35;;;;;;;45.63;19.60;;;2.70;99.90;;;;;;5007274;28;20626;-60
2021/04/19 06:56:04;;;;;;;42.33;18.60;;;2.80;99.90;;;;;;5005229;28;20618;-61
2021/04/19 06:58:29;;;;;;;38.13;18.40;;;3.00;99.90;;;;;;5007204;28;20806;-61
2021/04/19 07:00:57;;;;;;;44.57;18.43;;;3.20;99.90;;;;;;5004946;28;21006;-63
2021/04/19 07:03:23;;;;;;;42.13;17.80;;;3.40;99.90;;;;;;4997268;28;20200;-62
2021/04/19 07:05:50;;;;;;;35.00;18.37;;;3.50;99.90;;;;;;5010583;28;20967;-61
2021/04/19 07:08:25;;;;;;;45.23;18.37;;;3.60;99.70;;;;;;5000421;28;20424;-60
2021/04/19 07:11:00;;;;;;;47.63;19.33;;;3.70;99.80;;;;;;4994471;28;20516;-61
2021/04/19 07:13:27;;;;;;;39.00;19.07;;;3.80;99.50;;;;;;5008273;28;20518;-61
2021/04/19 07:15:53;;;;;;;44.17;19.10;;;3.90;99.30;;;;;;5006848;28;20464;-61
2021/04/19 07:18:20;;;;;;;36.80;18.37;;;4.10;99.50;;;;;;5004582;28;20439;-62
2021/04/19 07:20:46;;;;;;;37.60;18.87;;;4.30;99.10;;;;;;4999408;28;20469;-60
2021/04/19 07:23:15;;;;;;;37.87;18.07;;;4.40;98.60;;;;;;5022342;28;20431;-61
2021/04/19 07:25:44;;;;;;;42.40;17.20;;;4.50;98.20;;;;;;5004335;28;20462;-60
2021/04/19 07:28:13;;;;;;;39.03;16.57;;;4.50;97.90;;;;;;5003784;28;20446;-62
2021/04/19 07:30:39;;;;;;;36.63;18.50;;;4.60;98.20;;;;;;5009271;28;20932;-60
2021/04/19 07:33:05;;;;;;;35.13;18.43;;;4.70;98.60;;;;;;5009031;28;20943;-60
2021/04/19 07:35:33;;;;;;;35.37;17.67;;;4.80;98.60;;;;;;5004580;28;20459;-61
2021/04/19 07:38:01;;;;;;;29.57;16.17;;;5.00;98.50;;;;;;5023156;28;20181;-62
2021/04/19 07:40:42;;;;;;;49.07;19.20;;;5.20;98.20;;;;;;5003083;28;20900;-60
2021/04/19 07:43:21;;;;;;;37.60;17.80;;;5.40;97.90;;;;;;5006062;28;20427;-59
2021/04/19 07:46:08;;;;;;;31.77;16.97;;;5.60;97.80;;;;;;5004212;28;20517;-61
2021/04/19 07:48:40;;;;;;;34.00;15.80;;;5.80;97.50;;;;;;5001066;28;20420;-62
2021/04/19 07:51:34;;;;;;;33.50;16.63;;;6.00;97.10;;;;;;5003908;28;20427;-60
2021/04/19 07:54:12;;;;;;;35.63;17.53;;;6.10;96.70;;;;;;5002381;28;20434;-60
2021/04/19 07:56:39;;;;;;;33.67;16.67;;;6.20;96.30;;;;;;5000883;28;20537;-61
2021/04/19 07:59:25;;;;;;;27.57;15.77;;;6.30;96.10;;;;;;5008676;28;20429;-61
2021/04/19 08:02:00;;;;;;;29.70;16.10;;;6.40;95.60;;;;;;5005684;28;20862;-62
2021/04/19 08:04:29;;;;;;;30.63;15.20;;;6.60;95.60;;;;;;5002730;28;20471;-61
2021/04/19 08:06:55;;;;;;;31.50;15.43;;;6.70;95.50;;;;;;5006632;28;20824;-60
2021/04/19 08:09:26;;;;;;;33.47;13.93;;;6.90;94.90;;;;;;5004918;28;20941;-61
2021/04/19 08:11:57;;;;;;;24.50;14.20;;;7.00;93.60;;;;;;5007724;28;20434;-61
2021/04/19 08:14:24;;;;;;;29.23;13.87;;;7.10;92.70;;;;;;5008324;28;20427;-61
2021/04/19 08:17:08;;;;;;;25.70;13.07;;;7.20;92.20;;;;;;5011341;28;20450;-61
2021/04/19 08:19:35;;;;;;;19.17;11.40;;;7.30;91.80;;;;;;5004392;28;20461;-61
2021/04/19 08:22:24;;;;;;;23.20;11.77;;;7.30;91.50;;;;;;5001257;28;20476;-61
2021/04/19 08:24:50;;;;;;;19.40;11.90;;;7.40;91.60;;;;;;4999086;28;20975;-61
2021/04/19 08:27:24;;;;;;;28.20;14.70;;;7.50;91.30;;;;;;5002464;28;20442;-64
2021/04/19 08:29:50;;;;;;;23.80;11.60;;;7.60;91.10;;;;;;5005740;28;20685;-61
2021/04/19 08:32:21;;;;;;;25.00;13.10;;;7.60;90.30;;;;;;5002798;28;20513;-61
2021/04/19 08:34:49;;;;;;;29.40;11.90;;;7.70;86.20;;;;;;4995762;28;20440;-61
2021/04/19 08:37:18;;;;;;;21.73;11.23;;;7.70;87.30;;;;;;5007484;28;20537;-61
2021/04/19 08:39:45;;;;;;;17.40;9.57;;;7.70;80.60;;;;;;5017549;28;20411;-61
2021/04/19 08:42:13;;;;;;;24.80;10.90;;;7.70;77.80;;;;;;5015359;28;20435;-62
2021/04/19 08:44:40;;;;;;;18.87;10.30;;;7.70;79.10;;;;;;5004704;28;20455;-61
2021/04/19 08:47:07;;;;;;;17.97;10.07;;;7.70;79.80;;;;;;4996617;28;20843;-61
2021/04/19 08:49:33;;;;;;;17.03;10.43;;;7.70;80.50;;;;;;5003366;28;20440;-61
2021/04/19 08:52:00;;;;;;;22.40;11.30;;;7.70;80.50;;;;;;5000819;28;20430;-60
2021/04/19 08:54:27;;;;;;;17.23;10.40;;;7.70;80.90;;;;;;5003158;28;20450;-60
2021/04/19 08:56:53;;;;;;;19.83;10.50;;;7.70;80.70;;;;;;4999274;28;20442;-61
2021/04/19 08:59:20;;;;;;;19.50;10.20;;;7.70;80.80;;;;;;5010744;28;22392;-62
2021/04/19 09:01:47;;;;;;;17.60;10.17;;;7.80;78.80;;;;;;5005405;28;20435;-61
2021/04/19 09:04:12;;;;;;;24.00;8.30;;;7.80;77.50;;;;;;4997545;28;20483;-61
2021/04/19 09:06:43;;;;;;;12.87;7.30;;;7.80;77.70;;;;;;4999216;28;20509;-63
2021/04/19 09:09:13;;;;;;;15.10;9.17;;;7.90;76.90;;;;;;5005703;28;20175;-63
2021/04/19 09:11:39;;;;;;;17.07;8.80;;;7.90;75.80;;;;;;5021893;28;20423;-65
2021/04/19 09:14:16;;;;;;;22.50;9.77;;;8.00;76.20;;;;;;5021628;28;20423;-61
2021/04/19 09:16:42;;;;;;;21.53;10.33;;;8.10;77.80;;;;;;5024316;28;20223;-64
2021/04/19 09:19:15;;;;;;;18.80;10.53;;;8.20;78.70;;;;;;5024268;28;20526;-64
2021/04/19 09:21:49;;;;;;;18.87;10.80;;;8.30;80.10;;;;;;5028050;28;20494;-62
2021/04/19 09:24:19;;;;;;;20.23;10.17;;;8.40;78.30;;;;;;5027436;28;20466;-60
2021/04/19 09:26:53;;;;;;;17.10;11.07;;;8.50;77.40;;;;;;4999142;28;20557;-60
2021/04/19 09:29:25;;;;;;;15.83;9.53;;;8.50;77.80;;;;;;5001447;28;20485;-61
2021/04/19 09:32:19;;;;;;;17.10;9.70;;;8.50;74.50;;;;;;4999943;28;20439;-61
2021/04/19 09:34:52;;;;;;;20.10;9.67;;;8.60;74.50;;;;;;5003287;28;20438;-60
2021/04/19 09:37:43;;;;;;;14.73;9.33;;;8.70;72.50;;;;;;5068391;22;20504;-57
2021/04/19 09:40:26;;;;;;;19.07;9.93;;;8.70;74.10;;;;;;5041272;28;20854;-60
2021/04/19 09:42:56;;;;;;;18.03;8.87;;;8.70;73.00;;;;;;5041181;28;20435;-57
2021/04/19 09:45:50;;;;;;;18.20;10.10;;;8.70;73.60;;;;;;5037329;28;20833;-57
2021/04/19 09:48:28;;;;;;;15.10;9.27;;;8.80;76.80;;;;;;5015548;28;20435;-56
2021/04/19 09:51:13;;;;;;;16.27;9.47;;;8.80;75.70;;;;;;5015217;28;20452;-55
2021/04/19 09:53:46;;;;;;;17.23;9.60;;;8.90;77.20;;;;;;5018193;28;20810;-56
2021/04/19 09:56:13;;;;;;;15.73;9.17;;;9.00;74.30;;;;;;5018163;28;20462;-58
2021/04/19 09:58:40;;;;;;;16.23;8.70;;;9.10;72.30;;;;;;5014643;28;20438;-55
2021/04/19 10:01:06;;;;;;;15.73;7.70;;;9.20;71.80;;;;;;5027190;28;20462;-57
2021/04/19 10:03:34;;;;;;;16.53;8.43;;;9.30;68.50;;;;;;5015997;28;20458;-58
2021/04/19 10:06:04;;;;;;;16.10;7.77;;;9.40;62.20;;;;;;5018366;28;20453;-56
2021/04/19 10:08:34;;;;;;;18.27;8.90;;;9.30;57.80;;;;;;5016516;28;20434;-55
2021/04/19 10:11:01;;;;;;;23.90;7.60;;;9.40;62.20;;;;;;5020493;28;20447;-57
2021/04/19 10:13:32;;;;;;;14.73;8.70;;;9.60;62.20;;;;;;5016166;28;20517;-58
2021/04/19 10:16:02;;;;;;;12.03;7.70;;;9.80;60.90;;;;;;5022142;28;20562;-57
2021/04/19 10:18:35;;;;;;;13.13;7.83;;;10.00;59.00;;;;;;5023402;28;20524;-57
2021/04/19 10:21:01;;;;;;;12.77;7.63;;;10.20;58.20;;;;;;5016333;28;20430;-57
2021/04/19 10:23:40;;;;;;;16.00;8.43;;;10.40;55.00;;;;;;5017453;28;20462;-58
2021/04/19 10:26:06;;;;;;;12.27;8.00;;;10.40;53.80;;;;;;5017586;28;20668;-56
2021/04/19 10:28:32;;;;;;;13.70;8.80;;;10.40;54.50;;;;;;5012132;28;20629;-57
2021/04/19 10:31:19;;;;;;;25.43;11.00;;;10.40;54.30;;;;;;5016980;28;20427;-56
2021/04/19 10:33:50;;;;;;;15.03;10.40;;;10.40;55.80;;;;;;5018766;28;20434;-57
2021/04/19 10:36:19;;;;;;;16.87;9.80;;;10.30;56.20;;;;;;5021060;28;20466;-57
2021/04/19 10:38:50;;;;;;;15.30;9.67;;;10.20;56.70;;;;;;5021444;28;20437;-57
2021/04/19 10:41:16;;;;;;;17.93;11.40;;;10.10;56.60;;;;;;5016563;28;21016;-56
2021/04/19 10:43:43;;;;;;;18.33;9.37;;;10.00;58.50;;;;;;5024136;28;20485;-57
2021/04/19 10:46:25;;;;;;;23.60;11.30;;;9.90;59.80;;;;;;5017559;28;20514;-55
2021/04/19 10:48:54;;;;;;;16.50;9.80;;;9.90;65.20;;;;;;5016030;28;20516;-55
2021/04/19 10:51:25;;;;;;;20.33;9.50;;;9.90;64.40;;;;;;5014678;28;20554;-55
2021/04/19 10:53:54;;;;;;;14.80;9.13;;;9.90;64.60;;;;;;5017722;28;20706;-57
2021/04/19 10:56:21;;;;;;;17.50;9.97;;;9.80;62.30;;;;;;5019066;28;20991;-56
2021/04/19 10:58:49;;;;;;;17.50;8.90;;;9.70;62.80;;;;;;5014906;28;20442;-57
2021/04/19 11:01:24;;;;;;;14.83;7.97;;;9.60;61.40;;;;;;5012779;28;20434;-55
2021/04/19 11:03:50;;;;;;;13.17;8.07;;;9.40;61.60;;;;;;5019202;28;20958;-56
2021/04/19 11:06:16;;;;;;;12.23;8.53;;;9.30;62.90;;;;;;5026156;28;20604;-57
2021/04/19 11:08:52;;;;;;;14.33;8.30;;;9.20;63.80;;;;;;5022992;28;20998;-56
2021/04/19 11:11:36;;;;;;;17.17;9.30;;;9.10;63.60;;;;;;5015591;28;21134;-56
2021/04/19 11:14:20;;;;;;;14.73;9.20;;;8.90;64.40;;;;;;5014301;28;20476;-57
2021/04/19 11:17:06;;;;;;;15.23;8.47;;;8.80;65.90;;;;;;5021714;28;20530;-57
2021/04/19 11:19:45;;;;;;;14.13;8.03;;;8.80;65.70;;;;;;5015354;28;20817;-57
2021/04/19 11:22:29;;;;;;;19.50;9.70;;;8.70;66.80;;;;;;5017583;28;20434;-56
2021/04/19 11:25:09;;;;;;;17.13;9.60;;;8.60;68.00;;;;;;5020968;28;20493;-56
2021/04/19 11:27:35;;;;;;;15.97;9.23;;;8.60;72.00;;;;;;5023391;28;20445;-55
2021/04/19 11:30:01;;;;;;;15.33;8.77;;;8.50;78.20;;;;;;5022072;28;20446;-58
2021/04/19 11:32:32;;;;;;;18.03;9.53;;;8.50;82.10;;;;;;5020542;28;20175;-56
2021/04/19 11:34:59;;;;;;;16.63;9.83;;;8.50;84.70;;;;;;5013760;28;20275;-56
2021/04/19 11:37:36;;;;;;;16.80;9.20;;;8.40;88.50;;;;;;5017283;28;20474;-56
2021/04/19 11:40:24;;;;;;;19.67;10.00;;;8.40;90.00;;;;;;5018597;28;21007;-56
2021/04/19 11:42:50;;;;;;;16.10;9.60;;;8.40;90.50;;;;;;5018423;28;20442;-57
2021/04/19 11:45:21;;;;;;;17.90;10.60;;;8.30;91.20;;;;;;5019863;28;20462;-54
2021/04/19 11:47:48;;;;;;;15.93;8.73;;;8.30;92.30;;;;;;5018781;28;20326;-55
2021/04/19 11:50:14;;;;;;;16.33;9.53;;;8.20;92.70;;;;;;5014993;28;20453;-58
2021/04/19 11:52:50;;;;;;;16.30;9.93;;;8.20;92.00;;;;;;5021184;28;20534;-56
2021/04/19 11:55:17;;;;;;;18.20;10.27;;;8.20;92.70;;;;;;5016522;28;21012;-55
2021/04/19 11:57:44;;;;;;;14.63;8.90;;;8.20;93.10;;;;;;5016729;28;20703;-57
2021/04/19 12:00:14;;;;;;;15.53;9.80;;;8.20;92.70;;;;;;5020357;28;21037;-57
2021/04/19 12:02:40;;;;;;;14.80;9.87;;;8.20;92.30;;;;;;5021728;28;20544;-57
2021/04/19 12:05:08;;;;;;;17.73;9.77;;;8.20;91.30;;;;;;5012182;28;20450;-56
2021/04/19 12:07:34;;;;;;;15.07;9.90;;;8.20;92.30;;;;;;5019306;28;20454;-56
2021/04/19 12:10:00;;;;;;;16.03;9.63;;;8.30;93.20;;;;;;5022184;28;20423;-55
2021/04/19 12:12:26;;;;;;;15.30;9.70;;;8.30;92.80;;;;;;5016866;28;20461;-57
2021/04/19 12:14:55;;;;;;;17.00;9.93;;;8.40;93.00;;;;;;5020872;28;20722;-56
2021/04/19 12:17:20;;;;;;;17.03;9.17;;;8.40;93.40;;;;;;5016964;28;20486;-56
2021/04/19 12:19:46;;;;;;;17.00;9.70;;;8.40;90.80;;;;;;5017734;28;20511;-56
2021/04/19 12:22:13;;;;;;;16.03;9.93;;;8.40;91.50;;;;;;5015114;28;20211;-55
2021/04/19 12:24:38;;;;;;;22.83;11.13;;;8.40;91.90;;;;;;5022387;28;20642;-57
2021/04/19 12:27:05;;;;;;;16.97;10.47;;;8.40;92.00;;;;;;5017738;28;20454;-57
2021/04/19 12:29:31;;;;;;;14.50;9.27;;;8.40;90.20;;;;;;5026380;28;20513;-56
2021/04/19 12:31:56;;;;;;;15.90;9.73;;;8.40;90.30;;;;;;5019857;28;20546;-57
2021/04/19 12:34:22;;;;;;;16.77;9.67;;;8.40;90.70;;;;;;5020131;28;20618;-56
2021/04/19 12:36:51;;;;;;;15.90;9.23;;;8.30;90.10;;;;;;5016430;28;20818;-57
2021/04/19 12:39:17;;;;;;;19.30;9.10;;;8.30;90.10;;;;;;5019422;28;20172;-56
2021/04/19 12:41:42;;;;;;;14.37;9.20;;;8.40;89.60;;;;;;5016664;28;20455;-56
2021/04/19 12:44:08;;;;;;;16.97;10.30;;;8.40;89.20;;;;;;5022141;28;20249;-56
2021/04/19 12:46:34;;;;;;;14.97;9.47;;;8.40;87.80;;;;;;5018956;28;20211;-56
2021/04/19 12:48:59;;;;;;;18.87;10.63;;;8.40;89.30;;;;;;5014751;28;20165;-56
2021/04/19 12:51:26;;;;;;;19.37;11.13;;;8.40;90.20;;;;;;5039929;28;20211;-55